sensor_id;sensor_type;location;lat;lon;timestamp;P1;durP1;ratioP1;P2;durP2;ratioP2
13805;SDS011;6974;53.606;9.872;2022-07-22T00:00:42;12.67;;;11.37;;
13805;SDS011;6974;53.606;9.872;2022-07-22T00:03:09;11.70;;;9.77;;
13805;SDS011;6974;53.606;9.872;2022-07-22T00:05:36;10.83;;;9.00;;
13805;SDS011;6974;53.606;9.872;2022-07-22T00:08:05;10.23;;;8.27;;
13805;SDS011;6974;53.606;9.872;2022-07-22T00:10:32;9.80;;;8.80;;
13805;SDS011;6974;53.606;9.872;2022-07-22T00:12:59;12.27;;;9.33;;
13805;SDS011;6974;53.606;9.872;2022-07-22T00:15:25;9.60;;;8.17;;
13805;SDS011;6974;53.606;9.872;2022-07-22T00:17:52;12.43;;;9.47;;
13805;SDS011;6974;53.606;9.872;2022-07-22T00:20:19;10.67;;;9.57;;
13805;SDS011;6974;53.606;9.872;2022-07-22T00:22:46;12.83;;;10.00;;
13805;SDS011;6974;53.606;9.872;2022-07-22T00:25:14;13.57;;;10.27;;
13805;SDS011;6974;53.606;9.872;2022-07-22T00:27:41;9.73;;;8.73;;
13805;SDS011;6974;53.606;9.872;2022-07-22T00:30:08;9.13;;;8.00;;
13805;SDS011;6974;53.606;9.872;2022-07-22T00:32:35;7.90;;;6.93;;
13805;SDS011;6974;53.606;9.872;2022-07-22T00:35:02;6.20;;;5.47;;
13805;SDS011;6974;53.606;9.872;2022-07-22T00:37:30;5.40;;;4.10;;
13805;SDS011;6974;53.606;9.872;2022-07-22T00:39:57;5.40;;;3.87;;
13805;SDS011;6974;53.606;9.872;2022-07-22T00:42:25;4.70;;;3.50;;
13805;SDS011;6974;53.606;9.872;2022-07-22T00:44:52;4.17;;;3.87;;
13805;SDS011;6974;53.606;9.872;2022-07-22T00:47:18;4.03;;;3.20;;
13805;SDS011;6974;53.606;9.872;2022-07-22T00:49:45;3.30;;;3.00;;
13805;SDS011;6974;53.606;9.872;2022-07-22T00:52:12;3.10;;;2.40;;
13805;SDS011;6974;53.606;9.872;2022-07-22T00:54:39;3.33;;;2.70;;
13805;SDS011;6974;53.606;9.872;2022-07-22T00:57:06;3.70;;;2.53;;
13805;SDS011;6974;53.606;9.872;2022-07-22T00:59:34;3.37;;;2.70;;
13805;SDS011;6974;53.606;9.872;2022-07-22T01:02:01;5.07;;;2.80;;
13805;SDS011;6974;53.606;9.872;2022-07-22T01:04:28;4.33;;;2.80;;
13805;SDS011;6974;53.606;9.872;2022-07-22T01:06:55;4.17;;;2.97;;
13805;SDS011;6974;53.606;9.872;2022-07-22T01:09:22;6.13;;;2.90;;
13805;SDS011;6974;53.606;9.872;2022-07-22T01:11:49;4.47;;;2.90;;
13805;SDS011;6974;53.606;9.872;2022-07-22T01:14:16;5.33;;;2.80;;
13805;SDS011;6974;53.606;9.872;2022-07-22T01:16:44;3.90;;;3.37;;
13805;SDS011;6974;53.606;9.872;2022-07-22T01:19:11;6.80;;;4.03;;
13805;SDS011;6974;53.606;9.872;2022-07-22T01:21:39;6.33;;;4.90;;
13805;SDS011;6974;53.606;9.872;2022-07-22T01:24:06;6.47;;;4.87;;
13805;SDS011;6974;53.606;9.872;2022-07-22T01:26:33;7.17;;;5.40;;
13805;SDS011;6974;53.606;9.872;2022-07-22T01:29:00;8.33;;;5.17;;
13805;SDS011;6974;53.606;9.872;2022-07-22T01:31:27;7.33;;;6.43;;
13805;SDS011;6974;53.606;9.872;2022-07-22T01:33:54;8.63;;;7.37;;
13805;SDS011;6974;53.606;9.872;2022-07-22T01:36:21;13.60;;;7.47;;
13805;SDS011;6974;53.606;9.872;2022-07-22T01:38:49;11.53;;;6.77;;
13805;SDS011;6974;53.606;9.872;2022-07-22T01:41:16;8.50;;;6.43;;
13805;SDS011;6974;53.606;9.872;2022-07-22T01:43:43;11.47;;;6.40;;
13805;SDS011;6974;53.606;9.872;2022-07-22T01:46:10;9.63;;;6.27;;
13805;SDS011;6974;53.606;9.872;2022-07-22T01:48:37;8.80;;;6.00;;
13805;SDS011;6974;53.606;9.872;2022-07-22T01:51:03;9.13;;;6.03;;
13805;SDS011;6974;53.606;9.872;2022-07-22T01:53:31;9.13;;;5.87;;
13805;SDS011;6974;53.606;9.872;2022-07-22T01:55:59;7.70;;;5.47;;
13805;SDS011;6974;53.606;9.872;2022-07-22T01:58:26;9.53;;;5.30;;
13805;SDS011;6974;53.606;9.872;2022-07-22T02:00:53;11.40;;;4.97;;
13805;SDS011;6974;53.606;9.872;2022-07-22T02:03:19;9.47;;;4.90;;
13805;SDS011;6974;53.606;9.872;2022-07-22T02:05:46;11.17;;;4.60;;
13805;SDS011;6974;53.606;9.872;2022-07-22T02:08:14;9.23;;;4.70;;
13805;SDS011;6974;53.606;9.872;2022-07-22T02:10:41;7.67;;;4.30;;
13805;SDS011;6974;53.606;9.872;2022-07-22T02:13:09;11.13;;;4.40;;
13805;SDS011;6974;53.606;9.872;2022-07-22T02:15:36;7.23;;;3.80;;
13805;SDS011;6974;53.606;9.872;2022-07-22T02:18:09;8.00;;;3.73;;
13805;SDS011;6974;53.606;9.872;2022-07-22T02:20:37;5.90;;;3.50;;
13805;SDS011;6974;53.606;9.872;2022-07-22T02:23:04;6.63;;;3.37;;
13805;SDS011;6974;53.606;9.872;2022-07-22T02:25:31;11.13;;;4.03;;
13805;SDS011;6974;53.606;9.872;2022-07-22T02:27:57;7.23;;;3.53;;
13805;SDS011;6974;53.606;9.872;2022-07-22T02:30:26;6.33;;;3.30;;
13805;SDS011;6974;53.606;9.872;2022-07-22T02:32:52;5.27;;;3.93;;
13805;SDS011;6974;53.606;9.872;2022-07-22T02:35:19;8.63;;;3.40;;
13805;SDS011;6974;53.606;9.872;2022-07-22T02:37:46;7.13;;;3.33;;
13805;SDS011;6974;53.606;9.872;2022-07-22T02:40:13;7.50;;;3.43;;
13805;SDS011;6974;53.606;9.872;2022-07-22T02:42:40;4.93;;;2.80;;
13805;SDS011;6974;53.606;9.872;2022-07-22T02:45:07;10.07;;;3.17;;
13805;SDS011;6974;53.606;9.872;2022-07-22T02:47:36;5.57;;;3.03;;
13805;SDS011;6974;53.606;9.872;2022-07-22T02:50:12;7.20;;;3.30;;
13805;SDS011;6974;53.606;9.872;2022-07-22T02:52:38;6.80;;;3.20;;
13805;SDS011;6974;53.606;9.872;2022-07-22T02:55:05;5.47;;;3.03;;
13805;SDS011;6974;53.606;9.872;2022-07-22T02:57:33;10.40;;;3.70;;
13805;SDS011;6974;53.606;9.872;2022-07-22T02:59:59;6.27;;;3.30;;
13805;SDS011;6974;53.606;9.872;2022-07-22T03:02:26;7.83;;;3.50;;
13805;SDS011;6974;53.606;9.872;2022-07-22T03:04:54;9.83;;;3.80;;
13805;SDS011;6974;53.606;9.872;2022-07-22T03:07:21;7.30;;;3.83;;
13805;SDS011;6974;53.606;9.872;2022-07-22T03:09:48;8.43;;;3.90;;
13805;SDS011;6974;53.606;9.872;2022-07-22T03:12:15;5.13;;;3.57;;
13805;SDS011;6974;53.606;9.872;2022-07-22T03:14:42;6.87;;;3.53;;
13805;SDS011;6974;53.606;9.872;2022-07-22T03:17:09;6.67;;;4.00;;
13805;SDS011;6974;53.606;9.872;2022-07-22T03:19:35;7.93;;;4.13;;
13805;SDS011;6974;53.606;9.872;2022-07-22T03:22:04;7.27;;;3.83;;
13805;SDS011;6974;53.606;9.872;2022-07-22T03:24:30;8.67;;;4.27;;
13805;SDS011;6974;53.606;9.872;2022-07-22T03:26:57;7.37;;;3.63;;
13805;SDS011;6974;53.606;9.872;2022-07-22T03:29:24;8.47;;;3.90;;
13805;SDS011;6974;53.606;9.872;2022-07-22T03:31:51;6.57;;;3.40;;
13805;SDS011;6974;53.606;9.872;2022-07-22T03:34:18;7.80;;;4.20;;
13805;SDS011;6974;53.606;9.872;2022-07-22T03:36:44;7.13;;;3.97;;
13805;SDS011;6974;53.606;9.872;2022-07-22T03:39:12;6.90;;;3.70;;
13805;SDS011;6974;53.606;9.872;2022-07-22T03:41:39;5.17;;;3.50;;
13805;SDS011;6974;53.606;9.872;2022-07-22T03:44:06;7.00;;;3.53;;
13805;SDS011;6974;53.606;9.872;2022-07-22T03:46:33;5.40;;;3.27;;
13805;SDS011;6974;53.606;9.872;2022-07-22T03:48:59;12.03;;;4.53;;
13805;SDS011;6974;53.606;9.872;2022-07-22T03:51:26;6.73;;;3.97;;
13805;SDS011;6974;53.606;9.872;2022-07-22T03:53:53;7.27;;;4.00;;
13805;SDS011;6974;53.606;9.872;2022-07-22T03:56:21;9.70;;;3.50;;
13805;SDS011;6974;53.606;9.872;2022-07-22T03:58:48;7.87;;;3.73;;
13805;SDS011;6974;53.606;9.872;2022-07-22T04:01:15;6.60;;;3.60;;
13805;SDS011;6974;53.606;9.872;2022-07-22T04:03:41;6.63;;;3.37;;
13805;SDS011;6974;53.606;9.872;2022-07-22T04:06:08;5.67;;;3.20;;
13805;SDS011;6974;53.606;9.872;2022-07-22T04:08:35;9.03;;;3.13;;
13805;SDS011;6974;53.606;9.872;2022-07-22T04:11:02;7.17;;;3.17;;
13805;SDS011;6974;53.606;9.872;2022-07-22T04:13:30;7.30;;;3.00;;
13805;SDS011;6974;53.606;9.872;2022-07-22T04:15:57;6.87;;;2.90;;
13805;SDS011;6974;53.606;9.872;2022-07-22T04:18:23;7.43;;;3.47;;
13805;SDS011;6974;53.606;9.872;2022-07-22T04:20:50;6.60;;;2.93;;
13805;SDS011;6974;53.606;9.872;2022-07-22T04:23:18;6.70;;;3.07;;
13805;SDS011;6974;53.606;9.872;2022-07-22T04:25:45;6.90;;;3.17;;
13805;SDS011;6974;53.606;9.872;2022-07-22T04:28:11;4.20;;;2.67;;
13805;SDS011;6974;53.606;9.872;2022-07-22T04:30:40;8.43;;;3.00;;
13805;SDS011;6974;53.606;9.872;2022-07-22T04:33:06;6.57;;;2.83;;
13805;SDS011;6974;53.606;9.872;2022-07-22T04:35:33;6.10;;;2.83;;
13805;SDS011;6974;53.606;9.872;2022-07-22T04:38:00;7.97;;;3.10;;
13805;SDS011;6974;53.606;9.872;2022-07-22T04:40:27;6.33;;;3.20;;
13805;SDS011;6974;53.606;9.872;2022-07-22T04:42:54;6.37;;;2.90;;
13805;SDS011;6974;53.606;9.872;2022-07-22T04:45:21;5.67;;;3.20;;
13805;SDS011;6974;53.606;9.872;2022-07-22T04:47:49;7.10;;;3.37;;
13805;SDS011;6974;53.606;9.872;2022-07-22T04:50:16;4.80;;;3.20;;
13805;SDS011;6974;53.606;9.872;2022-07-22T04:52:42;9.40;;;3.93;;
13805;SDS011;6974;53.606;9.872;2022-07-22T04:55:09;7.97;;;3.60;;
13805;SDS011;6974;53.606;9.872;2022-07-22T04:57:36;6.70;;;3.63;;
13805;SDS011;6974;53.606;9.872;2022-07-22T05:00:04;6.37;;;3.90;;
13805;SDS011;6974;53.606;9.872;2022-07-22T05:02:31;8.10;;;4.10;;
13805;SDS011;6974;53.606;9.872;2022-07-22T05:04:59;6.73;;;3.70;;
13805;SDS011;6974;53.606;9.872;2022-07-22T05:07:26;5.80;;;3.50;;
13805;SDS011;6974;53.606;9.872;2022-07-22T05:09:53;5.53;;;3.57;;
13805;SDS011;6974;53.606;9.872;2022-07-22T05:12:20;6.97;;;3.40;;
13805;SDS011;6974;53.606;9.872;2022-07-22T05:14:46;9.27;;;3.77;;
13805;SDS011;6974;53.606;9.872;2022-07-22T05:17:13;4.90;;;3.20;;
13805;SDS011;6974;53.606;9.872;2022-07-22T05:19:40;6.07;;;3.80;;
13805;SDS011;6974;53.606;9.872;2022-07-22T05:22:08;7.40;;;3.63;;
13805;SDS011;6974;53.606;9.872;2022-07-22T05:24:35;6.23;;;4.10;;
13805;SDS011;6974;53.606;9.872;2022-07-22T05:27:02;9.60;;;4.27;;
13805;SDS011;6974;53.606;9.872;2022-07-22T05:29:29;7.73;;;3.90;;
13805;SDS011;6974;53.606;9.872;2022-07-22T05:31:56;6.57;;;3.90;;
13805;SDS011;6974;53.606;9.872;2022-07-22T05:34:23;6.23;;;3.70;;
13805;SDS011;6974;53.606;9.872;2022-07-22T05:36:50;6.17;;;3.37;;
13805;SDS011;6974;53.606;9.872;2022-07-22T05:39:18;7.03;;;3.53;;
13805;SDS011;6974;53.606;9.872;2022-07-22T05:41:45;10.57;;;4.30;;
13805;SDS011;6974;53.606;9.872;2022-07-22T05:44:11;9.23;;;3.90;;
13805;SDS011;6974;53.606;9.872;2022-07-22T05:46:38;6.40;;;3.77;;
13805;SDS011;6974;53.606;9.872;2022-07-22T05:49:05;10.73;;;3.87;;
13805;SDS011;6974;53.606;9.872;2022-07-22T05:51:32;6.97;;;3.43;;
13805;SDS011;6974;53.606;9.872;2022-07-22T05:53:59;9.80;;;4.00;;
13805;SDS011;6974;53.606;9.872;2022-07-22T05:56:30;6.17;;;3.33;;
13805;SDS011;6974;53.606;9.872;2022-07-22T05:58:57;8.87;;;3.80;;
13805;SDS011;6974;53.606;9.872;2022-07-22T06:01:24;6.60;;;3.73;;
13805;SDS011;6974;53.606;9.872;2022-07-22T06:03:50;8.60;;;3.93;;
13805;SDS011;6974;53.606;9.872;2022-07-22T06:06:17;5.80;;;3.43;;
13805;SDS011;6974;53.606;9.872;2022-07-22T06:08:44;8.10;;;4.00;;
13805;SDS011;6974;53.606;9.872;2022-07-22T06:11:11;6.03;;;3.83;;
13805;SDS011;6974;53.606;9.872;2022-07-22T06:13:39;9.80;;;4.07;;
13805;SDS011;6974;53.606;9.872;2022-07-22T06:16:06;9.73;;;4.20;;
13805;SDS011;6974;53.606;9.872;2022-07-22T06:18:33;6.97;;;4.00;;
13805;SDS011;6974;53.606;9.872;2022-07-22T06:21:00;9.67;;;4.37;;
13805;SDS011;6974;53.606;9.872;2022-07-22T06:23:27;10.10;;;4.10;;
13805;SDS011;6974;53.606;9.872;2022-07-22T06:25:54;9.30;;;4.10;;
13805;SDS011;6974;53.606;9.872;2022-07-22T06:28:20;10.13;;;5.00;;
13805;SDS011;6974;53.606;9.872;2022-07-22T06:30:49;11.37;;;4.13;;
13805;SDS011;6974;53.606;9.872;2022-07-22T06:33:15;8.97;;;4.20;;
13805;SDS011;6974;53.606;9.872;2022-07-22T06:35:43;13.20;;;4.57;;
13805;SDS011;6974;53.606;9.872;2022-07-22T06:38:09;12.23;;;4.83;;
13805;SDS011;6974;53.606;9.872;2022-07-22T06:40:36;9.17;;;4.23;;
13805;SDS011;6974;53.606;9.872;2022-07-22T06:43:03;8.70;;;4.37;;
13805;SDS011;6974;53.606;9.872;2022-07-22T06:45:30;10.30;;;4.57;;
13805;SDS011;6974;53.606;9.872;2022-07-22T06:47:58;11.20;;;4.13;;
13805;SDS011;6974;53.606;9.872;2022-07-22T06:50:25;10.73;;;4.43;;
13805;SDS011;6974;53.606;9.872;2022-07-22T06:52:52;11.87;;;4.50;;
13805;SDS011;6974;53.606;9.872;2022-07-22T06:55:19;10.77;;;4.23;;
13805;SDS011;6974;53.606;9.872;2022-07-22T06:57:46;8.50;;;4.10;;
13805;SDS011;6974;53.606;9.872;2022-07-22T07:00:14;9.57;;;3.83;;
13805;SDS011;6974;53.606;9.872;2022-07-22T07:02:41;10.43;;;4.40;;
13805;SDS011;6974;53.606;9.872;2022-07-22T07:05:09;9.23;;;3.80;;
13805;SDS011;6974;53.606;9.872;2022-07-22T07:07:36;7.63;;;3.80;;
13805;SDS011;6974;53.606;9.872;2022-07-22T07:10:03;9.20;;;3.93;;
13805;SDS011;6974;53.606;9.872;2022-07-22T07:12:31;7.83;;;3.80;;
13805;SDS011;6974;53.606;9.872;2022-07-22T07:14:57;7.23;;;3.70;;
13805;SDS011;6974;53.606;9.872;2022-07-22T07:17:24;9.10;;;3.97;;
13805;SDS011;6974;53.606;9.872;2022-07-22T07:19:51;10.77;;;3.70;;
13805;SDS011;6974;53.606;9.872;2022-07-22T07:22:19;11.30;;;3.80;;
13805;SDS011;6974;53.606;9.872;2022-07-22T07:24:47;8.90;;;3.73;;
13805;SDS011;6974;53.606;9.872;2022-07-22T07:27:14;9.23;;;3.77;;
13805;SDS011;6974;53.606;9.872;2022-07-22T07:29:41;9.67;;;4.10;;
13805;SDS011;6974;53.606;9.872;2022-07-22T07:32:07;10.00;;;3.63;;
13805;SDS011;6974;53.606;9.872;2022-07-22T07:34:34;11.00;;;3.70;;
13805;SDS011;6974;53.606;9.872;2022-07-22T07:37:01;11.50;;;4.00;;
13805;SDS011;6974;53.606;9.872;2022-07-22T07:39:29;14.23;;;4.27;;
13805;SDS011;6974;53.606;9.872;2022-07-22T07:41:56;11.50;;;3.60;;
13805;SDS011;6974;53.606;9.872;2022-07-22T07:44:23;11.30;;;3.67;;
13805;SDS011;6974;53.606;9.872;2022-07-22T07:46:50;9.00;;;3.70;;
13805;SDS011;6974;53.606;9.872;2022-07-22T07:49:17;7.40;;;3.60;;
13805;SDS011;6974;53.606;9.872;2022-07-22T07:51:43;11.40;;;3.97;;
13805;SDS011;6974;53.606;9.872;2022-07-22T07:54:10;10.20;;;3.77;;
13805;SDS011;6974;53.606;9.872;2022-07-22T07:56:38;10.07;;;4.10;;
13805;SDS011;6974;53.606;9.872;2022-07-22T07:59:05;7.47;;;3.17;;
13805;SDS011;6974;53.606;9.872;2022-07-22T08:01:32;10.17;;;3.63;;
13805;SDS011;6974;53.606;9.872;2022-07-22T08:03:59;11.20;;;3.93;;
13805;SDS011;6974;53.606;9.872;2022-07-22T08:06:26;12.67;;;3.60;;
13805;SDS011;6974;53.606;9.872;2022-07-22T08:08:52;9.90;;;3.23;;
13805;SDS011;6974;53.606;9.872;2022-07-22T08:11:19;9.63;;;3.00;;
13805;SDS011;6974;53.606;9.872;2022-07-22T08:13:47;9.57;;;4.03;;
13805;SDS011;6974;53.606;9.872;2022-07-22T08:16:14;7.07;;;3.50;;
13805;SDS011;6974;53.606;9.872;2022-07-22T08:18:42;7.80;;;3.13;;
13805;SDS011;6974;53.606;9.872;2022-07-22T08:21:09;7.60;;;3.10;;
13805;SDS011;6974;53.606;9.872;2022-07-22T08:23:35;6.10;;;2.63;;
13805;SDS011;6974;53.606;9.872;2022-07-22T08:26:02;11.23;;;3.40;;
13805;SDS011;6974;53.606;9.872;2022-07-22T08:28:30;7.83;;;2.73;;
13805;SDS011;6974;53.606;9.872;2022-07-22T08:30:58;6.77;;;3.13;;
13805;SDS011;6974;53.606;9.872;2022-07-22T08:33:25;6.27;;;2.50;;
13805;SDS011;6974;53.606;9.872;2022-07-22T08:35:51;7.20;;;2.80;;
13805;SDS011;6974;53.606;9.872;2022-07-22T08:38:18;10.20;;;2.97;;
13805;SDS011;6974;53.606;9.872;2022-07-22T08:40:45;7.03;;;2.90;;
13805;SDS011;6974;53.606;9.872;2022-07-22T08:43:12;6.63;;;2.97;;
13805;SDS011;6974;53.606;9.872;2022-07-22T08:45:39;11.80;;;4.20;;
13805;SDS011;6974;53.606;9.872;2022-07-22T08:48:08;7.57;;;3.20;;
13805;SDS011;6974;53.606;9.872;2022-07-22T08:50:35;6.30;;;3.47;;
13805;SDS011;6974;53.606;9.872;2022-07-22T08:53:02;6.03;;;2.80;;
13805;SDS011;6974;53.606;9.872;2022-07-22T08:55:29;7.53;;;2.80;;
13805;SDS011;6974;53.606;9.872;2022-07-22T08:57:56;9.50;;;3.20;;
13805;SDS011;6974;53.606;9.872;2022-07-22T09:00:23;5.67;;;2.57;;
13805;SDS011;6974;53.606;9.872;2022-07-22T09:02:50;7.93;;;2.90;;
13805;SDS011;6974;53.606;9.872;2022-07-22T09:05:18;5.73;;;3.00;;
13805;SDS011;6974;53.606;9.872;2022-07-22T09:07:45;5.63;;;3.00;;
13805;SDS011;6974;53.606;9.872;2022-07-22T09:10:13;5.70;;;2.53;;
13805;SDS011;6974;53.606;9.872;2022-07-22T09:12:54;5.97;;;2.40;;
13805;SDS011;6974;53.606;9.872;2022-07-22T09:15:27;7.20;;;2.60;;
13805;SDS011;6974;53.606;9.872;2022-07-22T09:17:57;7.33;;;2.83;;
13805;SDS011;6974;53.606;9.872;2022-07-22T09:20:27;11.93;;;2.97;;
13805;SDS011;6974;53.606;9.872;2022-07-22T09:22:54;5.87;;;2.47;;
13805;SDS011;6974;53.606;9.872;2022-07-22T09:25:26;7.97;;;3.00;;
13805;SDS011;6974;53.606;9.872;2022-07-22T09:27:55;5.13;;;2.60;;
13805;SDS011;6974;53.606;9.872;2022-07-22T09:30:35;6.80;;;2.70;;
13805;SDS011;6974;53.606;9.872;2022-07-22T09:33:04;8.23;;;3.00;;
13805;SDS011;6974;53.606;9.872;2022-07-22T09:35:33;7.90;;;2.40;;
13805;SDS011;6974;53.606;9.872;2022-07-22T09:38:00;4.20;;;2.50;;
13805;SDS011;6974;53.606;9.872;2022-07-22T09:40:29;5.40;;;2.50;;
13805;SDS011;6974;53.606;9.872;2022-07-22T09:42:58;9.80;;;2.47;;
13805;SDS011;6974;53.606;9.872;2022-07-22T09:45:27;7.53;;;2.33;;
13805;SDS011;6974;53.606;9.872;2022-07-22T09:47:56;4.50;;;2.60;;
13805;SDS011;6974;53.606;9.872;2022-07-22T09:50:24;6.50;;;2.83;;
13805;SDS011;6974;53.606;9.872;2022-07-22T09:52:53;5.53;;;2.40;;
13805;SDS011;6974;53.606;9.872;2022-07-22T09:55:22;5.47;;;2.40;;
13805;SDS011;6974;53.606;9.872;2022-07-22T09:57:51;6.10;;;2.50;;
13805;SDS011;6974;53.606;9.872;2022-07-22T10:00:20;5.47;;;2.10;;
13805;SDS011;6974;53.606;9.872;2022-07-22T10:02:49;7.77;;;2.63;;
13805;SDS011;6974;53.606;9.872;2022-07-22T10:05:18;7.97;;;2.60;;
13805;SDS011;6974;53.606;9.872;2022-07-22T10:07:46;7.80;;;2.77;;
13805;SDS011;6974;53.606;9.872;2022-07-22T10:10:17;5.53;;;2.10;;
13805;SDS011;6974;53.606;9.872;2022-07-22T10:12:45;7.80;;;2.53;;
13805;SDS011;6974;53.606;9.872;2022-07-22T10:15:14;5.23;;;2.67;;
13805;SDS011;6974;53.606;9.872;2022-07-22T10:17:43;5.27;;;2.60;;
13805;SDS011;6974;53.606;9.872;2022-07-22T10:20:11;6.50;;;2.40;;
13805;SDS011;6974;53.606;9.872;2022-07-22T10:25:33;4.40;;;2.50;;
13805;SDS011;6974;53.606;9.872;2022-07-22T10:28:19;5.13;;;2.30;;
13805;SDS011;6974;53.606;9.872;2022-07-22T10:30:47;6.40;;;2.43;;
13805;SDS011;6974;53.606;9.872;2022-07-22T10:33:15;5.33;;;2.50;;
13805;SDS011;6974;53.606;9.872;2022-07-22T10:35:52;6.27;;;2.30;;
13805;SDS011;6974;53.606;9.872;2022-07-22T10:38:21;7.10;;;2.70;;
13805;SDS011;6974;53.606;9.872;2022-07-22T10:40:50;5.63;;;2.27;;
13805;SDS011;6974;53.606;9.872;2022-07-22T10:43:19;5.83;;;2.00;;
13805;SDS011;6974;53.606;9.872;2022-07-22T10:45:48;6.90;;;2.33;;
13805;SDS011;6974;53.606;9.872;2022-07-22T10:48:19;5.93;;;2.40;;
13805;SDS011;6974;53.606;9.872;2022-07-22T10:50:49;8.17;;;2.73;;
13805;SDS011;6974;53.606;9.872;2022-07-22T10:53:19;7.47;;;2.50;;
13805;SDS011;6974;53.606;9.872;2022-07-22T10:55:58;5.43;;;2.50;;
13805;SDS011;6974;53.606;9.872;2022-07-22T11:01:24;6.67;;;2.40;;
13805;SDS011;6974;53.606;9.872;2022-07-22T11:03:53;4.53;;;2.27;;
13805;SDS011;6974;53.606;9.872;2022-07-22T11:06:25;7.17;;;2.33;;
13805;SDS011;6974;53.606;9.872;2022-07-22T11:08:55;6.70;;;2.47;;
13805;SDS011;6974;53.606;9.872;2022-07-22T11:14:13;4.47;;;2.27;;
13805;SDS011;6974;53.606;9.872;2022-07-22T11:16:41;6.83;;;2.20;;
13805;SDS011;6974;53.606;9.872;2022-07-22T11:19:09;5.80;;;2.53;;
13805;SDS011;6974;53.606;9.872;2022-07-22T11:21:36;6.00;;;2.53;;
13805;SDS011;6974;53.606;9.872;2022-07-22T11:24:03;6.37;;;2.40;;
13805;SDS011;6974;53.606;9.872;2022-07-22T11:26:34;5.23;;;2.30;;
13805;SDS011;6974;53.606;9.872;2022-07-22T11:29:08;6.20;;;2.17;;
13805;SDS011;6974;53.606;9.872;2022-07-22T11:31:36;7.70;;;2.57;;
13805;SDS011;6974;53.606;9.872;2022-07-22T11:34:05;5.73;;;2.63;;
13805;SDS011;6974;53.606;9.872;2022-07-22T11:36:33;6.40;;;2.63;;
13805;SDS011;6974;53.606;9.872;2022-07-22T11:39:00;6.53;;;2.50;;
13805;SDS011;6974;53.606;9.872;2022-07-22T11:41:28;4.77;;;2.10;;
13805;SDS011;6974;53.606;9.872;2022-07-22T11:43:56;6.50;;;2.37;;
13805;SDS011;6974;53.606;9.872;2022-07-22T11:46:26;7.67;;;2.47;;
13805;SDS011;6974;53.606;9.872;2022-07-22T11:48:53;3.83;;;2.27;;
13805;SDS011;6974;53.606;9.872;2022-07-22T11:51:27;5.93;;;2.70;;
13805;SDS011;6974;53.606;9.872;2022-07-22T11:53:55;4.63;;;2.33;;
13805;SDS011;6974;53.606;9.872;2022-07-22T11:56:22;5.00;;;2.20;;
13805;SDS011;6974;53.606;9.872;2022-07-22T11:58:50;6.83;;;2.00;;
13805;SDS011;6974;53.606;9.872;2022-07-22T12:01:19;5.27;;;2.40;;
13805;SDS011;6974;53.606;9.872;2022-07-22T12:03:50;4.63;;;1.90;;
13805;SDS011;6974;53.606;9.872;2022-07-22T12:06:18;6.00;;;2.10;;
13805;SDS011;6974;53.606;9.872;2022-07-22T12:08:47;7.67;;;2.47;;
13805;SDS011;6974;53.606;9.872;2022-07-22T12:11:16;4.30;;;2.27;;
13805;SDS011;6974;53.606;9.872;2022-07-22T12:13:47;3.17;;;2.00;;
13805;SDS011;6974;53.606;9.872;2022-07-22T12:16:19;3.23;;;1.93;;
13805;SDS011;6974;53.606;9.872;2022-07-22T12:18:53;4.27;;;2.20;;
13805;SDS011;6974;53.606;9.872;2022-07-22T12:21:21;4.27;;;1.97;;
13805;SDS011;6974;53.606;9.872;2022-07-22T12:23:49;5.73;;;2.47;;
13805;SDS011;6974;53.606;9.872;2022-07-22T12:26:40;3.27;;;1.80;;
13805;SDS011;6974;53.606;9.872;2022-07-22T12:29:12;6.70;;;2.30;;
13805;SDS011;6974;53.606;9.872;2022-07-22T12:31:49;4.27;;;1.90;;
13805;SDS011;6974;53.606;9.872;2022-07-22T12:34:29;4.23;;;1.83;;
13805;SDS011;6974;53.606;9.872;2022-07-22T12:36:58;7.27;;;2.47;;
13805;SDS011;6974;53.606;9.872;2022-07-22T12:39:27;7.07;;;2.33;;
13805;SDS011;6974;53.606;9.872;2022-07-22T12:41:54;6.50;;;2.60;;
13805;SDS011;6974;53.606;9.872;2022-07-22T12:44:21;7.10;;;1.90;;
13805;SDS011;6974;53.606;9.872;2022-07-22T12:46:50;7.87;;;2.30;;
13805;SDS011;6974;53.606;9.872;2022-07-22T12:49:19;6.60;;;2.40;;
13805;SDS011;6974;53.606;9.872;2022-07-22T12:52:08;4.97;;;2.10;;
13805;SDS011;6974;53.606;9.872;2022-07-22T12:54:36;4.27;;;2.13;;
13805;SDS011;6974;53.606;9.872;2022-07-22T12:57:04;5.13;;;1.90;;
13805;SDS011;6974;53.606;9.872;2022-07-22T12:59:32;6.00;;;2.13;;
13805;SDS011;6974;53.606;9.872;2022-07-22T13:01:59;7.83;;;2.17;;
13805;SDS011;6974;53.606;9.872;2022-07-22T13:04:26;4.53;;;2.00;;
13805;SDS011;6974;53.606;9.872;2022-07-22T13:06:53;4.40;;;1.80;;
13805;SDS011;6974;53.606;9.872;2022-07-22T13:09:22;5.80;;;2.00;;
13805;SDS011;6974;53.606;9.872;2022-07-22T13:11:48;3.87;;;2.00;;
13805;SDS011;6974;53.606;9.872;2022-07-22T13:14:15;4.57;;;2.00;;
13805;SDS011;6974;53.606;9.872;2022-07-22T13:16:42;4.90;;;1.90;;
13805;SDS011;6974;53.606;9.872;2022-07-22T13:19:09;5.67;;;2.03;;
13805;SDS011;6974;53.606;9.872;2022-07-22T13:21:36;3.50;;;1.90;;
13805;SDS011;6974;53.606;9.872;2022-07-22T13:24:03;5.83;;;2.43;;
13805;SDS011;6974;53.606;9.872;2022-07-22T13:26:32;5.13;;;2.30;;
13805;SDS011;6974;53.606;9.872;2022-07-22T13:28:58;5.47;;;2.50;;
13805;SDS011;6974;53.606;9.872;2022-07-22T13:31:26;3.60;;;1.90;;
13805;SDS011;6974;53.606;9.872;2022-07-22T13:33:52;4.73;;;1.90;;
13805;SDS011;6974;53.606;9.872;2022-07-22T13:36:19;3.63;;;1.93;;
13805;SDS011;6974;53.606;9.872;2022-07-22T13:38:47;4.80;;;2.20;;
13805;SDS011;6974;53.606;9.872;2022-07-22T13:41:16;5.43;;;2.00;;
13805;SDS011;6974;53.606;9.872;2022-07-22T13:43:44;3.63;;;2.03;;
13805;SDS011;6974;53.606;9.872;2022-07-22T13:46:14;3.30;;;2.20;;
13805;SDS011;6974;53.606;9.872;2022-07-22T13:48:41;3.30;;;1.90;;
13805;SDS011;6974;53.606;9.872;2022-07-22T13:51:08;4.07;;;2.10;;
13805;SDS011;6974;53.606;9.872;2022-07-22T13:53:34;3.17;;;1.70;;
13805;SDS011;6974;53.606;9.872;2022-07-22T13:56:01;4.90;;;2.30;;
13805;SDS011;6974;53.606;9.872;2022-07-22T13:58:28;3.73;;;2.00;;
13805;SDS011;6974;53.606;9.872;2022-07-22T14:00:58;5.03;;;2.00;;
13805;SDS011;6974;53.606;9.872;2022-07-22T14:03:25;8.37;;;2.10;;
13805;SDS011;6974;53.606;9.872;2022-07-22T14:05:52;4.50;;;2.00;;
13805;SDS011;6974;53.606;9.872;2022-07-22T14:08:18;4.47;;;2.00;;
13805;SDS011;6974;53.606;9.872;2022-07-22T14:10:45;5.90;;;1.97;;
13805;SDS011;6974;53.606;9.872;2022-07-22T14:13:12;6.13;;;2.30;;
13805;SDS011;6974;53.606;9.872;2022-07-22T14:15:39;5.00;;;2.37;;
13805;SDS011;6974;53.606;9.872;2022-07-22T14:18:07;5.30;;;2.10;;
13805;SDS011;6974;53.606;9.872;2022-07-22T14:20:34;3.17;;;1.90;;
13805;SDS011;6974;53.606;9.872;2022-07-22T14:23:02;4.33;;;1.90;;
13805;SDS011;6974;53.606;9.872;2022-07-22T14:25:30;4.97;;;2.37;;
13805;SDS011;6974;53.606;9.872;2022-07-22T14:27:57;2.77;;;1.73;;
13805;SDS011;6974;53.606;9.872;2022-07-22T14:30:24;3.20;;;2.00;;
13805;SDS011;6974;53.606;9.872;2022-07-22T14:32:52;5.67;;;2.03;;
13805;SDS011;6974;53.606;9.872;2022-07-22T14:35:21;5.23;;;2.50;;
13805;SDS011;6974;53.606;9.872;2022-07-22T14:37:48;5.17;;;2.30;;
13805;SDS011;6974;53.606;9.872;2022-07-22T14:40:15;4.13;;;1.80;;
13805;SDS011;6974;53.606;9.872;2022-07-22T14:42:42;4.53;;;1.90;;
13805;SDS011;6974;53.606;9.872;2022-07-22T14:45:09;4.93;;;2.10;;
13805;SDS011;6974;53.606;9.872;2022-07-22T14:47:36;5.17;;;2.10;;
13805;SDS011;6974;53.606;9.872;2022-07-22T14:50:03;5.33;;;2.17;;
13805;SDS011;6974;53.606;9.872;2022-07-22T14:52:32;3.27;;;1.90;;
13805;SDS011;6974;53.606;9.872;2022-07-22T14:54:59;2.80;;;1.60;;
13805;SDS011;6974;53.606;9.872;2022-07-22T14:57:25;3.90;;;1.97;;
13805;SDS011;6974;53.606;9.872;2022-07-22T14:59:52;5.20;;;1.90;;
13805;SDS011;6974;53.606;9.872;2022-07-22T15:02:19;4.17;;;2.03;;
13805;SDS011;6974;53.606;9.872;2022-07-22T15:04:46;5.77;;;2.20;;
13805;SDS011;6974;53.606;9.872;2022-07-22T15:07:13;4.47;;;1.90;;
13805;SDS011;6974;53.606;9.872;2022-07-22T15:09:41;4.73;;;2.00;;
13805;SDS011;6974;53.606;9.872;2022-07-22T15:12:08;3.80;;;1.87;;